Atlantic, Pennsylvania
Current Conditions -  °F | °C
As of 4:53 PM on Sunday 25 Jan 2015 (Local Time) from KGKJ Reporting Station
Overcast Overcast  
Wind Chill: 17°   Ceiling: 4100
Heat Index: 24°   Visibility: 10mi
Dew Point: 14°   Wind: 6mph
Humidity: 65%   Direction: 30°NNE
Pressure: 29.82"   Gusts: NA
Location:  41.5°N, 80.33°W
Report Text: KGKJ 252153Z AUTO 03005KT 10SM SCT033 BKN041 OVC048 M04/M10 A2982 RMK AO2 SLP112 T10441100 TSNO
Loading
Personal Weather Stations






























Interactive Weather Map New forecast layout! Learn more

10-Day Weather Forecast

Advertisements
Track Severe Weather on mobile